Wetterdaten: Woche 20.07.15 - 26.07.15 (KW30)
Datum Zeit Temp. A. Feuchte A. Luftdruck Regen Wind Richtung Taupunkt Windchill Windben
20.07.2015 00:00 26,0 C 61 % 1009,5 hPa 0,0 l/m 15,2 km/h N 17,9 C 24,7 C 41,5 km/h
20.07.2015 01:00 23,4 C 72 % 1009,9 hPa 0,0 l/m 3,9 km/h N 18,1 C 23,4 C 14,5 km/h
20.07.2015 02:00 22,6 C 75 % 1010,0 hPa 0,0 l/m 3,9 km/h N 17,9 C 22,5 C 14,9 km/h
20.07.2015 03:00 23,8 C 66 % 1010,0 hPa 0,0 l/m 12,4 km/h N 17,0 C 22,4 C 37,0 km/h
20.07.2015 04:00 23,8 C 64 % 1009,8 hPa 0,0 l/m 14,8 km/h N 16,6 C 21,9 C 36,6 km/h
20.07.2015 05:00 23,2 C 67 % 1010,6 hPa 0,0 l/m 8,9 km/h N 16,7 C 22,5 C 25,4 km/h
20.07.2015 06:00 23,4 C 67 % 1011,3 hPa 0,0 l/m 7,2 km/h N 16,9 C 23,1 C 21,7 km/h
20.07.2015 07:00 23,3 C 69 % 1012,0 hPa 0,0 l/m 10,7 km/h N 17,2 C 22,2 C 24,1 km/h
20.07.2015 08:00 23,5 C 70 % 1012,7 hPa 0,0 l/m 8,0 km/h N 17,7 C 23,0 C 24,1 km/h
20.07.2015 09:00 24,8 C 67 % 1013,2 hPa 0,0 l/m 9,6 km/h N 18,3 C 24,0 C 22,5 km/h
20.07.2015 10:00 25,7 C 65 % 1013,4 hPa 0,0 l/m 8,9 km/h N 18,5 C 25,2 C 21,3 km/h
20.07.2015 11:00 26,7 C 61 % 1013,5 hPa 0,0 l/m 6,7 km/h N 18,6 C 26,6 C 20,1 km/h
20.07.2015 12:00 28,3 C 54 % 1013,5 hPa 0,0 l/m 7,5 km/h N 18,0 C 28,1 C 20,1 km/h
20.07.2015 13:00 28,5 C 52 % 1013,5 hPa 0,0 l/m 6,9 km/h N 17,6 C 28,4 C 19,7 km/h
20.07.2015 14:00 29,4 C 50 % 1013,0 hPa 0,0 l/m 6,1 km/h N 17,9 C 29,3 C 19,7 km/h
20.07.2015 15:00 30,0 C 48 % 1012,4 hPa 0,0 l/m 5,7 km/h N 17,8 C 30,0 C 18,1 km/h
20.07.2015 16:00 30,1 C 46 % 1012,0 hPa 0,0 l/m 8,0 km/h N 17,2 C 29,9 C 22,5 km/h
20.07.2015 17:00 30,3 C 46 % 1011,9 hPa 0,0 l/m 6,8 km/h N 17,2 C 30,2 C 20,9 km/h
20.07.2015 18:00 30,5 C 46 % 1011,8 hPa 0,0 l/m 5,2 km/h N 17,5 C 30,5 C 18,5 km/h
20.07.2015 19:00 30,2 C 46 % 1011,8 hPa 0,0 l/m 3,6 km/h N 17,4 C 30,2 C 14,9 km/h
20.07.2015 20:00 29,0 C 49 % 1012,1 hPa 0,0 l/m 1,0 km/h N 17,3 C 29,0 C 5,6 km/h
20.07.2015 21:00 26,5 C 58 % 1012,9 hPa 0,0 l/m 0,0 km/h N 17,4 C 26,5 C 0,0 km/h
20.07.2015 22:00 23,8 C 68 % 1013,4 hPa 0,0 l/m 0,0 km/h N 17,4 C 23,8 C 0,0 km/h
20.07.2015 23:00 22,5 C 72 % 1013,5 hPa 0,0 l/m 0,0 km/h N 17,1 C 22,5 C 0,0 km/h
21.07.2015 00:00 21,7 C 73 % 1013,8 hPa 0,0 l/m 0,0 km/h N 16,6 C 21,7 C 0,0 km/h
21.07.2015 01:00 21,4 C 74 % 1013,8 hPa 0,0 l/m 0,0 km/h N 16,6 C 21,4 C 1,6 km/h
21.07.2015 02:00 21,1 C 75 % 1013,8 hPa 0,0 l/m 0,1 km/h N 16,5 C 21,1 C 2,4 km/h
21.07.2015 03:00 20,6 C 77 % 1013,8 hPa 0,0 l/m 0,1 km/h N 16,3 C 20,6 C 2,0 km/h
21.07.2015 04:00 20,5 C 77 % 1013,9 hPa 0,0 l/m 0,0 km/h N 16,2 C 20,5 C 0,4 km/h
21.07.2015 05:00 19,9 C 78 % 1014,0 hPa 0,0 l/m 0,1 km/h N 15,9 C 19,9 C 1,2 km/h
21.07.2015 06:00 20,1 C 79 % 1014,2 hPa 0,0 l/m 0,1 km/h N 16,4 C 20,1 C 1,6 km/h
21.07.2015 07:00 21,6 C 76 % 1014,3 hPa 0,0 l/m 0,6 km/h N 17,1 C 21,6 C 4,4 km/h
21.07.2015 08:00 25,6 C 65 % 1014,2 hPa 0,0 l/m 0,2 km/h N 18,4 C 25,6 C 3,6 km/h
21.07.2015 09:00 30,1 C 52 % 1014,1 hPa 0,0 l/m 0,5 km/h N 19,1 C 30,1 C 5,6 km/h
21.07.2015 10:00 31,3 C 49 % 1013,9 hPa 0,0 l/m 1,9 km/h N 19,2 C 31,3 C 8,1 km/h
21.07.2015 11:00 32,3 C 46 % 1013,7 hPa 0,0 l/m 1,8 km/h N 18,9 C 32,3 C 8,4 km/h
21.07.2015 12:00 33,1 C 43 % 1013,5 hPa 0,0 l/m 1,4 km/h N 18,9 C 33,1 C 7,6 km/h
21.07.2015 13:00 35,8 C 37 % 1013,2 hPa 0,0 l/m 2,2 km/h N 18,9 C 35,8 C 9,7 km/h
21.07.2015 14:00 34,0 C 40 % 1012,8 hPa 0,0 l/m 0,8 km/h N 18,5 C 34,0 C 6,8 km/h
21.07.2015 15:00 32,9 C 45 % 1012,5 hPa 0,0 l/m 0,2 km/h N 19,3 C 32,9 C 3,2 km/h
21.07.2015 16:00 32,9 C 43 % 1012,1 hPa 0,0 l/m 1,5 km/h N 18,7 C 32,9 C 8,0 km/h
21.07.2015 17:00 33,2 C 43 % 1011,8 hPa 0,0 l/m 2,0 km/h N 18,7 C 33,2 C 9,3 km/h
21.07.2015 18:00 34,0 C 41 % 1011,5 hPa 0,0 l/m 2,3 km/h N 18,7 C 34,0 C 10,9 km/h
21.07.2015 19:00 33,9 C 41 % 1011,3 hPa 0,0 l/m 2,1 km/h N 18,8 C 33,9 C 8,4 km/h
21.07.2015 20:00 32,5 C 46 % 1011,4 hPa 0,0 l/m 0,5 km/h N 19,4 C 32,5 C 4,4 km/h
21.07.2015 21:00 29,4 C 57 % 1012,0 hPa 0,0 l/m 0,0 km/h N 20,0 C 29,4 C 1,2 km/h
21.07.2015 22:00 26,0 C 66 % 1012,5 hPa 0,0 l/m 0,0 km/h N 19,2 C 26,0 C 0,8 km/h
21.07.2015 23:00 24,8 C 67 % 1012,6 hPa 0,0 l/m 0,1 km/h N 18,1 C 24,8 C 1,6 km/h
22.07.2015 00:00 24,9 C 63 % 1012,6 hPa 0,0 l/m 0,2 km/h N 17,4 C 24,9 C 3,6 km/h
22.07.2015 01:00 24,9 C 63 % 1012,6 hPa 0,0 l/m 0,0 km/h N 17,4 C 24,9 C 1,6 km/h
22.07.2015 02:00 23,9 C 66 % 1012,6 hPa 0,0 l/m 0,0 km/h N 17,2 C 23,9 C 1,6 km/h
22.07.2015 03:00 22,6 C 71 % 1012,9 hPa 0,0 l/m 0,0 km/h N 17,0 C 22,6 C 0,4 km/h
22.07.2015 04:00 21,1 C 76 % 1013,0 hPa 0,0 l/m 0,0 km/h N 16,6 C 21,1 C 0,0 km/h
22.07.2015 05:00 20,3 C 78 % 1013,0 hPa 0,0 l/m 0,0 km/h N 16,3 C 20,3 C 0,0 km/h
22.07.2015 06:00 21,0 C 78 % 1013,2 hPa 0,0 l/m 0,0 km/h N 16,9 C 21,0 C 0,4 km/h
22.07.2015 07:00 23,1 C 73 % 1013,3 hPa 0,0 l/m 0,0 km/h N 17,9 C 23,1 C 0,0 km/h
22.07.2015 08:00 27,7 C 57 % 1013,5 hPa 0,0 l/m 1,3 km/h N 18,4 C 27,7 C 7,2 km/h
22.07.2015 09:00 31,8 C 48 % 1013,5 hPa 0,0 l/m 0,3 km/h N 19,2 C 31,8 C 3,6 km/h
22.07.2015 10:00 33,4 C 45 % 1013,4 hPa 0,0 l/m 0,6 km/h N 19,6 C 33,4 C 6,0 km/h
22.07.2015 11:00 34,8 C 42 % 1012,9 hPa 0,0 l/m 1,0 km/h N 19,7 C 34,8 C 7,6 km/h
22.07.2015 12:00 36,6 C 36 % 1012,2 hPa 0,0 l/m 1,3 km/h N 19,2 C 36,6 C 8,1 km/h
22.07.2015 13:00 37,6 C 33 % 1011,6 hPa 0,0 l/m 1,8 km/h N 18,5 C 37,6 C 10,5 km/h
22.07.2015 14:00 38,2 C 33 % 1011,0 hPa 0,0 l/m 2,0 km/h N 19,2 C 38,2 C 10,1 km/h
22.07.2015 15:00 37,6 C 35 % 1010,3 hPa 0,0 l/m 2,0 km/h N 19,4 C 37,6 C 10,5 km/h
22.07.2015 16:00 36,0 C 37 % 1009,8 hPa 0,0 l/m 3,2 km/h N 18,9 C 36,0 C 12,1 km/h
22.07.2015 17:00 35,5 C 37 % 1009,2 hPa 0,0 l/m 3,8 km/h N 18,6 C 35,5 C 12,5 km/h
22.07.2015 18:00 35,7 C 36 % 1008,9 hPa 0,0 l/m 3,5 km/h N 18,3 C 35,7 C 11,7 km/h
22.07.2015 19:00 34,8 C 38 % 1008,8 hPa 0,0 l/m 3,1 km/h N 18,1 C 34,8 C 13,3 km/h
22.07.2015 20:00 33,1 C 42 % 1008,5 hPa 0,0 l/m 2,3 km/h N 18,2 C 33,1 C 9,3 km/h
22.07.2015 21:00 31,2 C 46 % 1008,5 hPa 0,0 l/m 1,3 km/h N 18,2 C 31,2 C 6,8 km/h
22.07.2015 22:00 29,5 C 51 % 1008,8 hPa 0,0 l/m 0,6 km/h N 18,1 C 29,5 C 5,2 km/h
22.07.2015 23:00 28,2 C 54 % 1008,8 hPa 0,0 l/m 1,1 km/h N 18,0 C 28,2 C 7,2 km/h
23.07.2015 00:00 27,3 C 57 % 1008,5 hPa 0,0 l/m 0,2 km/h N 18,0 C 27,3 C 4,0 km/h
23.07.2015 01:00 26,2 C 63 % 1008,6 hPa 0,0 l/m 0,1 km/h N 18,5 C 26,2 C 2,4 km/h
23.07.2015 02:00 25,6 C 65 % 1009,1 hPa 0,0 l/m 0,3 km/h N 18,6 C 25,6 C 3,6 km/h
23.07.2015 03:00 25,0 C 64 % 1009,1 hPa 0,0 l/m 0,8 km/h N 17,7 C 25,0 C 7,2 km/h
23.07.2015 04:00 27,1 C 55 % 1009,1 hPa 0,0 l/m 3,4 km/h N 17,3 C 27,1 C 17,7 km/h
23.07.2015 05:00 26,3 C 59 % 1009,6 hPa 0,0 l/m 0,5 km/h N 17,5 C 26,3 C 5,6 km/h
23.07.2015 06:00 25,6 C 62 % 1009,7 hPa 0,0 l/m 0,5 km/h N 17,7 C 25,6 C 3,2 km/h
23.07.2015 07:00 26,5 C 59 % 1010,0 hPa 0,0 l/m 1,3 km/h N 17,8 C 26,5 C 10,4 km/h
23.07.2015 08:00 28,1 C 54 % 1010,4 hPa 0,0 l/m 9,5 km/h N 18,0 C 27,7 C 24,9 km/h
23.07.2015 09:00 28,3 C 55 % 1010,8 hPa 0,0 l/m 12,0 km/h N 18,3 C 27,6 C 31,4 km/h
23.07.2015 10:00 28,5 C 56 % 1011,4 hPa 0,0 l/m 12,9 km/h N 18,7 C 27,8 C 33,0 km/h
23.07.2015 11:00 28,3 C 57 % 1011,9 hPa 0,0 l/m 11,3 km/h N 18,9 C 27,6 C 27,4 km/h
23.07.2015 12:00 27,8 C 58 % 1011,8 hPa 0,0 l/m 8,9 km/h N 18,7 C 27,4 C 25,0 km/h
23.07.2015 13:00 28,8 C 56 % 1011,6 hPa 0,0 l/m 6,4 km/h N 19,0 C 28,8 C 18,5 km/h
23.07.2015 14:00 29,3 C 54 % 1011,5 hPa 0,0 l/m 6,4 km/h N 18,9 C 29,2 C 20,9 km/h
23.07.2015 15:00 28,8 C 58 % 1011,3 hPa 0,0 l/m 8,9 km/h N 19,6 C 28,4 C 22,5 km/h
23.07.2015 16:00 27,8 C 60 % 1010,9 hPa 0,0 l/m 8,0 km/h N 19,2 C 27,6 C 21,7 km/h
23.07.2015 17:00 27,0 C 63 % 1010,9 hPa 0,0 l/m 7,2 km/h N 19,2 C 26,9 C 20,1 km/h
23.07.2015 18:00 27,7 C 60 % 1010,6 hPa 0,0 l/m 4,8 km/h N 19,2 C 27,7 C 17,7 km/h
23.07.2015 19:00 27,9 C 59 % 1010,5 hPa 0,0 l/m 2,4 km/h N 19,1 C 27,9 C 13,7 km/h
23.07.2015 20:00 26,7 C 64 % 1011,4 hPa 0,0 l/m 0,8 km/h N 19,3 C 26,7 C 8,9 km/h
23.07.2015 21:00 25,6 C 67 % 1012,0 hPa 0,0 l/m 0,0 km/h N 19,0 C 25,6 C 1,6 km/h
23.07.2015 22:00 24,5 C 71 % 1011,8 hPa 0,0 l/m 0,0 km/h N 18,8 C 24,5 C 3,2 km/h
23.07.2015 23:00 25,1 C 66 % 1012,0 hPa 0,0 l/m 1,6 km/h N 18,3 C 25,1 C 7,2 km/h
24.07.2015 00:00 24,4 C 68 % 1012,3 hPa 0,0 l/m 0,0 km/h N 18,1 C 24,4 C 6,4 km/h
24.07.2015 01:00 23,4 C 72 % 1012,5 hPa 0,0 l/m 0,0 km/h N 17,9 C 23,4 C 6,4 km/h
24.07.2015 02:00 23,0 C 73 % 1012,6 hPa 0,0 l/m 0,8 km/h N 17,9 C 23,0 C 6,4 km/h
24.07.2015 03:00 22,5 C 74 % 1012,6 hPa 0,0 l/m 0,0 km/h N 17,5 C 22,5 C 6,4 km/h
24.07.2015 04:00 22,0 C 74 % 1012,5 hPa 0,0 l/m 0,8 km/h N 17,1 C 22,0 C 8,1 km/h
24.07.2015 05:00 21,1 C 76 % 1012,4 hPa 0,0 l/m 0,0 km/h N 16,6 C 21,1 C 4,8 km/h
24.07.2015 06:00 20,9 C 77 % 1012,7 hPa 0,0 l/m 0,0 km/h N 16,6 C 20,9 C 8,1 km/h
24.07.2015 07:00 22,0 C 73 % 1012,8 hPa 0,0 l/m 2,4 km/h N 16,8 C 22,0 C 11,3 km/h
24.07.2015 08:00 23,5 C 67 % 1012,6 hPa 0,0 l/m 1,1 km/h N 17,1 C 23,5 C 7,0 km/h
24.07.2015 09:00 25,6 C 62 % 1012,3 hPa 0,0 l/m 1,4 km/h N 17,6 C 25,6 C 7,2 km/h
24.07.2015 10:00 28,2 C 55 % 1011,7 hPa 0,0 l/m 0,6 km/h N 18,2 C 28,2 C 6,4 km/h
24.07.2015 11:00 30,1 C 51 % 1011,2 hPa 0,0 l/m 1,2 km/h N 18,8 C 30,1 C 8,8 km/h
24.07.2015 12:00 32,4 C 45 % 1010,6 hPa 0,0 l/m 1,8 km/h N 19,0 C 32,4 C 8,8 km/h
24.07.2015 13:00 33,4 C 44 % 1009,8 hPa 0,0 l/m 1,6 km/h N 19,4 C 33,4 C 9,7 km/h
24.07.2015 14:00 34,3 C 42 % 1009,0 hPa 0,0 l/m 2,6 km/h N 19,4 C 34,3 C 11,3 km/h
24.07.2015 15:00 33,8 C 41 % 1008,1 hPa 0,0 l/m 2,4 km/h N 18,6 C 33,8 C 10,5 km/h
24.07.2015 16:00 33,3 C 43 % 1007,3 hPa 0,0 l/m 2,8 km/h N 18,8 C 33,3 C 12,1 km/h
24.07.2015 17:00 33,3 C 43 % 1006,7 hPa 0,0 l/m 2,5 km/h N 19,1 C 33,3 C 11,7 km/h
24.07.2015 18:00 32,5 C 45 % 1006,2 hPa 0,0 l/m 1,7 km/h N 19,0 C 32,5 C 10,1 km/h
24.07.2015 19:00 31,8 C 43 % 1006,1 hPa 0,0 l/m 2,4 km/h N 17,6 C 31,8 C 13,3 km/h
24.07.2015 20:00 30,3 C 46 % 1006,3 hPa 0,0 l/m 0,9 km/h N 17,4 C 30,3 C 6,0 km/h
24.07.2015 21:00 28,8 C 53 % 1006,5 hPa 0,0 l/m 0,1 km/h N 18,2 C 28,8 C 2,0 km/h
24.07.2015 22:00 26,8 C 60 % 1006,6 hPa 0,0 l/m 0,0 km/h N 18,3 C 26,8 C 2,0 km/h
24.07.2015 23:00 25,8 C 63 % 1006,6 hPa 0,0 l/m 0,4 km/h N 18,1 C 25,8 C 4,4 km/h
25.07.2015 00:00 25,7 C 63 % 1006,1 hPa 0,0 l/m 0,5 km/h N 18,2 C 25,7 C 5,2 km/h
25.07.2015 01:00 25,3 C 65 % 1005,7 hPa 0,0 l/m 0,3 km/h N 18,1 C 25,3 C 4,4 km/h
25.07.2015 02:00 23,8 C 70 % 1005,5 hPa 0,0 l/m 0,0 km/h N 18,0 C 23,8 C 1,2 km/h
25.07.2015 03:00 22,2 C 76 % 1005,0 hPa 0,0 l/m 0,0 km/h N 17,8 C 22,2 C 0,0 km/h
25.07.2015 04:00 21,6 C 79 % 1004,7 hPa 0,0 l/m 0,0 km/h N 17,8 C 21,6 C 0,0 km/h
25.07.2015 05:00 21,5 C 80 % 1004,5 hPa 0,0 l/m 0,0 km/h N 17,8 C 21,5 C 0,4 km/h
25.07.2015 06:00 21,2 C 80 % 1004,9 hPa 0,0 l/m 0,0 km/h N 17,6 C 21,2 C 0,0 km/h
25.07.2015 07:00 21,7 C 80 % 1004,7 hPa 0,0 l/m 0,3 km/h N 18,2 C 21,7 C 3,6 km/h
25.07.2015 08:00 23,1 C 76 % 1005,0 hPa 0,0 l/m 0,5 km/h N 18,6 C 23,1 C 5,2 km/h
25.07.2015 09:00 25,5 C 66 % 1005,4 hPa 0,0 l/m 0,5 km/h N 18,8 C 25,5 C 2,4 km/h
25.07.2015 10:00 25,5 C 63 % 1005,9 hPa 0,0 l/m 0,3 km/h N 17,9 C 25,5 C 3,6 km/h
25.07.2015 11:00 27,3 C 49 % 1005,8 hPa 0,0 l/m 2,8 km/h N 15,6 C 27,3 C 20,5 km/h
25.07.2015 12:00 28,2 C 46 % 1005,6 hPa 0,0 l/m 8,6 km/h N 15,3 C 27,8 C 29,4 km/h
25.07.2015 13:00 30,0 C 42 % 1005,3 hPa 0,0 l/m 7,6 km/h N 15,5 C 29,9 C 26,1 km/h
25.07.2015 14:00 31,0 C 39 % 1004,9 hPa 0,0 l/m 7,6 km/h N 15,3 C 30,9 C 24,1 km/h
25.07.2015 15:00 30,0 C 40 % 1004,9 hPa 0,0 l/m 10,4 km/h N 14,7 C 29,7 C 29,4 km/h
25.07.2015 16:00 28,6 C 43 % 1005,5 hPa 0,0 l/m 6,4 km/h N 14,6 C 28,5 C 19,3 km/h
25.07.2015 17:00 27,8 C 48 % 1005,5 hPa 0,0 l/m 2,2 km/h N 15,8 C 27,8 C 12,5 km/h
25.07.2015 18:00 27,9 C 47 % 1005,1 hPa 0,0 l/m 2,6 km/h N 15,4 C 27,9 C 15,7 km/h
25.07.2015 19:00 27,3 C 48 % 1005,5 hPa 0,0 l/m 2,3 km/h N 15,3 C 27,3 C 14,9 km/h
25.07.2015 20:00 25,3 C 56 % 1006,8 hPa 0,0 l/m 12,4 km/h N 15,7 C 24,1 C 35,4 km/h
25.07.2015 21:00 22,0 C 63 % 1008,5 hPa 0,0 l/m 18,8 km/h N 14,6 C 19,0 C 44,3 km/h
25.07.2015 22:00 21,1 C 67 % 1009,5 hPa 0,0 l/m 19,8 km/h N 14,7 C 17,7 C 44,7 km/h
25.07.2015 23:00 19,8 C 67 % 1010,2 hPa 0,0 l/m 18,0 km/h N 13,5 C 16,4 C 38,2 km/h
26.07.2015 00:00 19,2 C 68 % 1011,3 hPa 0,3 l/m 11,0 km/h N 13,2 C 17,4 C 33,4 km/h
26.07.2015 01:00 18,3 C 71 % 1012,3 hPa 0,3 l/m 11,4 km/h N 13,0 C 16,3 C 34,2 km/h
26.07.2015 02:00 17,7 C 72 % 1012,8 hPa 0,8 l/m 10,2 km/h N 12,6 C 16,1 C 28,6 km/h
26.07.2015 03:00 16,9 C 69 % 1013,2 hPa 0,3 l/m 12,2 km/h N 11,1 C 14,5 C 31,0 km/h
26.07.2015 04:00 17,5 C 62 % 1013,7 hPa 0,0 l/m 10,4 km/h N 10,2 C 15,8 C 27,0 km/h
26.07.2015 05:00 17,4 C 60 % 1014,2 hPa 0,0 l/m 9,1 km/h N 9,5 C 16,1 C 25,7 km/h
26.07.2015 06:00 17,1 C 59 % 1014,8 hPa 0,0 l/m 8,1 km/h N 8,8 C 16,2 C 23,3 km/h
26.07.2015 07:00 16,8 C 58 % 1015,2 hPa 0,0 l/m 7,6 km/h N 8,5 C 16,2 C 23,3 km/h
26.07.2015 08:00 16,9 C 59 % 1015,5 hPa 0,0 l/m 8,6 km/h N 8,9 C 15,8 C 23,8 km/h
26.07.2015 09:00 17,9 C 57 % 1015,6 hPa 0,0 l/m 11,0 km/h N 9,3 C 16,0 C 29,8 km/h
26.07.2015 10:00 19,5 C 52 % 1015,5 hPa 0,0 l/m 13,1 km/h N 9,3 C 17,2 C 31,4 km/h
26.07.2015 11:00 20,6 C 50 % 1015,2 hPa 0,0 l/m 9,7 km/h N 9,6 C 19,4 C 25,4 km/h
26.07.2015 12:00 21,4 C 48 % 1014,7 hPa 0,0 l/m 8,4 km/h N 9,8 C 20,7 C 23,3 km/h
26.07.2015 13:00 22,6 C 45 % 1014,0 hPa 0,0 l/m 5,7 km/h N 9,9 C 22,5 C 20,9 km/h
26.07.2015 14:00 23,7 C 41 % 1013,2 hPa 0,0 l/m 5,4 km/h N 9,6 C 23,6 C 18,9 km/h
26.07.2015 15:00 23,8 C 40 % 1012,3 hPa 0,0 l/m 5,4 km/h N 9,2 C 23,8 C 17,7 km/h
26.07.2015 16:00 24,2 C 37 % 1011,3 hPa 0,0 l/m 3,4 km/h N 8,6 C 24,2 C 14,9 km/h
26.07.2015 17:00 24,4 C 34 % 1010,5 hPa 0,0 l/m 3,3 km/h N 7,3 C 24,4 C 14,9 km/h
26.07.2015 18:00 25,6 C 32 % 1009,7 hPa 0,0 l/m 1,0 km/h N 7,7 C 25,6 C 8,1 km/h
26.07.2015 19:00 24,5 C 43 % 1009,5 hPa 0,0 l/m 2,2 km/h N 11,1 C 24,5 C 11,3 km/h
26.07.2015 20:00 22,4 C 51 % 1009,4 hPa 0,0 l/m 2,2 km/h N 11,6 C 22,4 C 10,9 km/h
26.07.2015 21:00 20,6 C 62 % 1009,1 hPa 0,0 l/m 1,2 km/h N 13,0 C 20,6 C 7,6 km/h
26.07.2015 22:00 19,3 C 68 % 1008,4 hPa 0,0 l/m 0,3 km/h N 13,1 C 19,3 C 5,6 km/h
26.07.2015 23:00 18,0 C 72 % 1008,1 hPa 0,0 l/m 0,1 km/h N 12,7 C 18,0 C 2,4 km/h
Min-Datum _ 26.07.15 26.07.15 25.07.15 - 20.07.15 - 26.07.15 26.07.15 20.07.15
_ Min-Zeit 03:15 18:30 05:30 - 20:45 - 17:30 03:45 20:45
Minimum _ 16,6 C 31 % 1004,3 hPa - 0,0 km/h - 7,1 C 13,6 C 0,0 km/h
Max-Datum _ 22.07.15 25.07.15 26.07.15 26.07.15 20.07.15 - 22.07.15 22.07.15 26.07.15
_ Max-Zeit 14:15 07:30 09:15 02:30 00:15 - 11:15 15:00 01:15
Maximum _ 38,6 C 81 % 1015,8 hPa 0,8 l/m 23,7 km/h
N
- 20,7 C 38,5 C 51,5 km/h
N
Durchschnitt _ 26,3 C 57 % 1010,8 hPa #1,6 l/m 3,7 km/h N 16,7 C 26,1 C 12,7 km/h